Terminal Aerodrome Forecast
Issued by NWS Jackson, MS

Current Version | Previous Version | Text Only | Print | Product List | Glossary On
Versions: 1 2 3 4 5 6 7 8 9 10 11 12 13 14 15 16 17 18 19 20 21 22 23 24 25 26 27
000
FTUS44 KJAN 050534
TAFGWO
TAF
KGWO 050534Z 0506/0606 VRB03KT 6SM BR FEW015 SCT250
     FM051000 VRB03KT 4SM BR FEW005 SCT040 SCT250
     FM051400 25005KT P6SM FEW020 SCT040 BKN150
     FM052000 23007KT P6SM VCTS SCT025 BKN050CB
     FM060100 19004KT P6SM FEW030 SCT150=

USA.gov is the U.S. government's official web portal to all federal, state and local government web resources and services.